sensor_id;sensor_type;location;lat;lon;timestamp;temperature;humidity
774;DHT22;370;48.810;9.150;2024-01-16T00:02:13;0.80;1.00
774;DHT22;370;48.810;9.150;2024-01-16T00:04:40;0.80;1.00
774;DHT22;370;48.810;9.150;2024-01-16T00:07:07;0.80;1.00
774;DHT22;370;48.810;9.150;2024-01-16T00:09:36;0.80;1.00
774;DHT22;370;48.810;9.150;2024-01-16T00:12:03;0.80;1.00
774;DHT22;370;48.810;9.150;2024-01-16T00:14:34;0.80;1.00
774;DHT22;370;48.810;9.150;2024-01-16T00:17:01;0.80;1.00
774;DHT22;370;48.810;9.150;2024-01-16T00:19:28;0.80;1.00
774;DHT22;370;48.810;9.150;2024-01-16T00:21:57;0.80;1.00
774;DHT22;370;48.810;9.150;2024-01-16T00:24:28;0.80;1.00
774;DHT22;370;48.810;9.150;2024-01-16T00:26:59;0.70;1.00
774;DHT22;370;48.810;9.150;2024-01-16T00:29:29;0.60;1.00
774;DHT22;370;48.810;9.150;2024-01-16T00:31:56;0.60;1.00
774;DHT22;370;48.810;9.150;2024-01-16T00:34:23;0.60;1.00
774;DHT22;370;48.810;9.150;2024-01-16T00:36:53;0.50;1.00
774;DHT22;370;48.810;9.150;2024-01-16T00:39:20;0.60;1.00
774;DHT22;370;48.810;9.150;2024-01-16T00:41:47;0.60;1.00
774;DHT22;370;48.810;9.150;2024-01-16T00:44:15;0.60;1.00
774;DHT22;370;48.810;9.150;2024-01-16T00:46:42;0.50;1.00
774;DHT22;370;48.810;9.150;2024-01-16T00:49:09;0.50;1.00
774;DHT22;370;48.810;9.150;2024-01-16T00:51:36;0.50;1.00
774;DHT22;370;48.810;9.150;2024-01-16T00:54:04;0.40;1.00
774;DHT22;370;48.810;9.150;2024-01-16T00:56:33;0.40;1.00
774;DHT22;370;48.810;9.150;2024-01-16T00:59:00;0.50;1.00
774;DHT22;370;48.810;9.150;2024-01-16T01:01:33;0.50;1.00
774;DHT22;370;48.810;9.150;2024-01-16T01:04:03;0.50;1.00
774;DHT22;370;48.810;9.150;2024-01-16T01:06:30;0.50;1.00
774;DHT22;370;48.810;9.150;2024-01-16T01:08:57;0.60;1.00
774;DHT22;370;48.810;9.150;2024-01-16T01:11:24;0.60;1.00
774;DHT22;370;48.810;9.150;2024-01-16T01:13:52;0.60;1.00
774;DHT22;370;48.810;9.150;2024-01-16T01:16:19;0.70;1.00
774;DHT22;370;48.810;9.150;2024-01-16T01:18:49;0.70;1.00
774;DHT22;370;48.810;9.150;2024-01-16T01:21:16;0.70;1.00
774;DHT22;370;48.810;9.150;2024-01-16T01:23:43;0.80;1.00
774;DHT22;370;48.810;9.150;2024-01-16T01:26:10;0.70;1.00
774;DHT22;370;48.810;9.150;2024-01-16T01:28:39;0.60;1.00
774;DHT22;370;48.810;9.150;2024-01-16T01:31:07;0.50;1.00
774;DHT22;370;48.810;9.150;2024-01-16T01:33:34;0.50;1.00
774;DHT22;370;48.810;9.150;2024-01-16T01:36:03;0.40;1.00
774;DHT22;370;48.810;9.150;2024-01-16T01:38:29;0.40;1.00
774;DHT22;370;48.810;9.150;2024-01-16T01:40:56;0.40;1.00
774;DHT22;370;48.810;9.150;2024-01-16T01:43:24;0.30;1.00
774;DHT22;370;48.810;9.150;2024-01-16T01:46:09;0.30;1.00
774;DHT22;370;48.810;9.150;2024-01-16T01:48:37;0.30;1.00
774;DHT22;370;48.810;9.150;2024-01-16T01:51:05;0.20;1.00
774;DHT22;370;48.810;9.150;2024-01-16T01:53:34;0.20;1.00
774;DHT22;370;48.810;9.150;2024-01-16T01:56:04;0.20;1.00
774;DHT22;370;48.810;9.150;2024-01-16T01:58:32;0.20;1.00
774;DHT22;370;48.810;9.150;2024-01-16T02:01:00;0.10;1.00
774;DHT22;370;48.810;9.150;2024-01-16T02:03:29;0.10;1.00
774;DHT22;370;48.810;9.150;2024-01-16T02:05:59;0.10;1.00
774;DHT22;370;48.810;9.150;2024-01-16T02:08:27;0.00;1.00
774;DHT22;370;48.810;9.150;2024-01-16T02:10:54;0.00;1.00
774;DHT22;370;48.810;9.150;2024-01-16T02:13:20;0.00;1.00
774;DHT22;370;48.810;9.150;2024-01-16T02:15:49;-0.10;1.00
774;DHT22;370;48.810;9.150;2024-01-16T02:18:16;-0.20;1.00
774;DHT22;370;48.810;9.150;2024-01-16T02:20:43;-0.20;1.00
774;DHT22;370;48.810;9.150;2024-01-16T02:23:12;-0.30;1.00
774;DHT22;370;48.810;9.150;2024-01-16T02:25:41;-0.30;1.00
774;DHT22;370;48.810;9.150;2024-01-16T02:28:08;-0.30;1.00
774;DHT22;370;48.810;9.150;2024-01-16T02:30:35;-0.40;1.00
774;DHT22;370;48.810;9.150;2024-01-16T02:33:02;-0.40;1.00
774;DHT22;370;48.810;9.150;2024-01-16T02:35:29;-0.40;1.00
774;DHT22;370;48.810;9.150;2024-01-16T02:37:56;-0.50;1.00
774;DHT22;370;48.810;9.150;2024-01-16T02:40:23;-0.50;1.00
774;DHT22;370;48.810;9.150;2024-01-16T02:42:51;-0.60;1.00
774;DHT22;370;48.810;9.150;2024-01-16T02:45:18;-0.60;1.00
774;DHT22;370;48.810;9.150;2024-01-16T02:47:44;-0.70;1.00
774;DHT22;370;48.810;9.150;2024-01-16T02:50:11;-0.70;1.00
774;DHT22;370;48.810;9.150;2024-01-16T02:52:38;-0.80;1.00
774;DHT22;370;48.810;9.150;2024-01-16T02:55:06;-0.80;1.00
774;DHT22;370;48.810;9.150;2024-01-16T02:57:33;-0.90;1.00
774;DHT22;370;48.810;9.150;2024-01-16T03:00:01;-0.90;1.00
774;DHT22;370;48.810;9.150;2024-01-16T03:02:28;-0.90;1.00
774;DHT22;370;48.810;9.150;2024-01-16T03:04:55;-0.90;1.00
774;DHT22;370;48.810;9.150;2024-01-16T03:10:29;-1.00;1.00
774;DHT22;370;48.810;9.150;2024-01-16T03:12:56;-1.00;1.00
774;DHT22;370;48.810;9.150;2024-01-16T03:15:24;-1.00;1.00
774;DHT22;370;48.810;9.150;2024-01-16T03:17:51;-1.00;1.00
774;DHT22;370;48.810;9.150;2024-01-16T03:20:18;-1.00;1.00
774;DHT22;370;48.810;9.150;2024-01-16T03:22:44;-1.00;1.00
774;DHT22;370;48.810;9.150;2024-01-16T03:25:11;-1.10;1.00
774;DHT22;370;48.810;9.150;2024-01-16T03:27:38;-1.00;1.00
774;DHT22;370;48.810;9.150;2024-01-16T03:30:07;-1.00;1.00
774;DHT22;370;48.810;9.150;2024-01-16T03:32:36;-1.10;1.00
774;DHT22;370;48.810;9.150;2024-01-16T03:35:03;-1.10;1.00
774;DHT22;370;48.810;9.150;2024-01-16T03:37:30;-1.00;1.00
774;DHT22;370;48.810;9.150;2024-01-16T03:39:57;-1.00;1.00
774;DHT22;370;48.810;9.150;2024-01-16T03:42:24;-1.10;1.00
774;DHT22;370;48.810;9.150;2024-01-16T03:44:50;-1.20;1.00
774;DHT22;370;48.810;9.150;2024-01-16T03:47:17;-1.20;1.00
774;DHT22;370;48.810;9.150;2024-01-16T03:49:45;-1.30;1.00
774;DHT22;370;48.810;9.150;2024-01-16T03:52:12;-1.30;1.00
774;DHT22;370;48.810;9.150;2024-01-16T03:54:39;-1.30;1.00
774;DHT22;370;48.810;9.150;2024-01-16T03:57:05;-1.30;1.00
774;DHT22;370;48.810;9.150;2024-01-16T03:59:32;-1.30;1.00
774;DHT22;370;48.810;9.150;2024-01-16T04:02:00;-1.40;1.00
774;DHT22;370;48.810;9.150;2024-01-16T04:04:27;-1.40;1.00
774;DHT22;370;48.810;9.150;2024-01-16T04:06:55;-1.40;1.00
774;DHT22;370;48.810;9.150;2024-01-16T04:09:21;-1.50;1.00
774;DHT22;370;48.810;9.150;2024-01-16T04:11:50;-1.50;1.00
774;DHT22;370;48.810;9.150;2024-01-16T04:14:16;-1.50;1.00
774;DHT22;370;48.810;9.150;2024-01-16T04:16:43;-1.50;1.00
774;DHT22;370;48.810;9.150;2024-01-16T04:19:10;-1.50;1.00
774;DHT22;370;48.810;9.150;2024-01-16T04:21:37;-1.50;1.00
774;DHT22;370;48.810;9.150;2024-01-16T04:24:05;-1.60;1.00
774;DHT22;370;48.810;9.150;2024-01-16T04:26:35;-1.60;1.00
774;DHT22;370;48.810;9.150;2024-01-16T04:29:01;-1.70;1.00
774;DHT22;370;48.810;9.150;2024-01-16T04:31:29;-1.60;1.00
774;DHT22;370;48.810;9.150;2024-01-16T04:33:56;-1.70;1.00
774;DHT22;370;48.810;9.150;2024-01-16T04:36:23;-1.70;1.00
774;DHT22;370;48.810;9.150;2024-01-16T04:38:50;-1.70;1.00
774;DHT22;370;48.810;9.150;2024-01-16T04:41:19;-1.70;1.00
774;DHT22;370;48.810;9.150;2024-01-16T04:43:46;-1.70;1.00
774;DHT22;370;48.810;9.150;2024-01-16T04:46:14;-1.70;1.00
774;DHT22;370;48.810;9.150;2024-01-16T04:48:41;-1.70;1.00
774;DHT22;370;48.810;9.150;2024-01-16T04:51:07;-1.70;1.00
774;DHT22;370;48.810;9.150;2024-01-16T04:53:34;-1.70;1.00
774;DHT22;370;48.810;9.150;2024-01-16T04:56:01;-1.70;1.00
774;DHT22;370;48.810;9.150;2024-01-16T04:58:29;-1.70;1.00
774;DHT22;370;48.810;9.150;2024-01-16T05:00:56;-1.60;1.00
774;DHT22;370;48.810;9.150;2024-01-16T05:03:23;-1.60;1.00
774;DHT22;370;48.810;9.150;2024-01-16T05:05:50;-1.60;1.00
774;DHT22;370;48.810;9.150;2024-01-16T05:08:17;-1.60;1.00
774;DHT22;370;48.810;9.150;2024-01-16T05:10:43;-1.60;1.00
774;DHT22;370;48.810;9.150;2024-01-16T05:13:10;-1.70;1.00
774;DHT22;370;48.810;9.150;2024-01-16T05:15:40;-1.70;1.00
774;DHT22;370;48.810;9.150;2024-01-16T05:18:07;-1.70;1.00
774;DHT22;370;48.810;9.150;2024-01-16T05:20:34;-1.70;1.00
774;DHT22;370;48.810;9.150;2024-01-16T05:23:01;-1.70;1.00
774;DHT22;370;48.810;9.150;2024-01-16T05:25:28;-1.70;1.00
774;DHT22;370;48.810;9.150;2024-01-16T05:27:55;-1.70;1.00
774;DHT22;370;48.810;9.150;2024-01-16T05:30:22;-1.70;1.00
774;DHT22;370;48.810;9.150;2024-01-16T05:32:50;-1.60;1.00
774;DHT22;370;48.810;9.150;2024-01-16T05:35:17;-1.60;1.00
774;DHT22;370;48.810;9.150;2024-01-16T05:37:44;-1.60;1.00
774;DHT22;370;48.810;9.150;2024-01-16T05:40:11;-1.50;1.00
774;DHT22;370;48.810;9.150;2024-01-16T05:42:38;-1.50;1.00
774;DHT22;370;48.810;9.150;2024-01-16T05:45:05;-1.50;1.00
774;DHT22;370;48.810;9.150;2024-01-16T05:47:32;-1.50;1.00
774;DHT22;370;48.810;9.150;2024-01-16T05:50:00;-1.40;1.00
774;DHT22;370;48.810;9.150;2024-01-16T05:52:27;-1.40;1.00
774;DHT22;370;48.810;9.150;2024-01-16T05:54:54;-1.40;1.00
774;DHT22;370;48.810;9.150;2024-01-16T05:57:22;-1.50;1.00
774;DHT22;370;48.810;9.150;2024-01-16T05:59:49;-1.40;1.00
774;DHT22;370;48.810;9.150;2024-01-16T06:02:16;-1.50;1.00
774;DHT22;370;48.810;9.150;2024-01-16T06:04:42;-1.50;1.00
774;DHT22;370;48.810;9.150;2024-01-16T06:07:10;-1.50;1.00
774;DHT22;370;48.810;9.150;2024-01-16T06:09:38;-1.40;1.00
774;DHT22;370;48.810;9.150;2024-01-16T06:12:06;-1.30;1.00
774;DHT22;370;48.810;9.150;2024-01-16T06:14:33;-1.40;1.00
774;DHT22;370;48.810;9.150;2024-01-16T06:17:00;-1.40;1.00
774;DHT22;370;48.810;9.150;2024-01-16T06:19:28;-1.30;1.00
774;DHT22;370;48.810;9.150;2024-01-16T06:21:55;-1.20;1.00
774;DHT22;370;48.810;9.150;2024-01-16T06:24:23;-1.30;1.00
774;DHT22;370;48.810;9.150;2024-01-16T06:26:50;-1.30;1.00
774;DHT22;370;48.810;9.150;2024-01-16T06:29:17;-1.40;1.00
774;DHT22;370;48.810;9.150;2024-01-16T06:31:44;-1.30;1.00
774;DHT22;370;48.810;9.150;2024-01-16T06:34:10;-1.40;1.00
774;DHT22;370;48.810;9.150;2024-01-16T06:36:37;-1.50;1.00
774;DHT22;370;48.810;9.150;2024-01-16T06:39:04;-1.60;1.00
774;DHT22;370;48.810;9.150;2024-01-16T06:41:33;-1.60;1.00
774;DHT22;370;48.810;9.150;2024-01-16T06:44:00;-1.60;1.00
774;DHT22;370;48.810;9.150;2024-01-16T06:46:26;-1.60;1.00
774;DHT22;370;48.810;9.150;2024-01-16T06:48:53;-1.50;1.00
774;DHT22;370;48.810;9.150;2024-01-16T06:51:20;-1.50;1.00
774;DHT22;370;48.810;9.150;2024-01-16T06:53:46;-1.50;1.00
774;DHT22;370;48.810;9.150;2024-01-16T06:56:13;-1.50;1.00
774;DHT22;370;48.810;9.150;2024-01-16T06:58:41;-1.40;1.00
774;DHT22;370;48.810;9.150;2024-01-16T07:01:09;-1.40;1.00
774;DHT22;370;48.810;9.150;2024-01-16T07:03:36;-1.30;1.00
774;DHT22;370;48.810;9.150;2024-01-16T07:06:03;-1.30;1.00
774;DHT22;370;48.810;9.150;2024-01-16T07:08:29;-1.30;1.00
774;DHT22;370;48.810;9.150;2024-01-16T07:10:56;-1.20;1.00
774;DHT22;370;48.810;9.150;2024-01-16T07:13:23;-1.20;1.00
774;DHT22;370;48.810;9.150;2024-01-16T07:15:51;-1.20;1.00
774;DHT22;370;48.810;9.150;2024-01-16T07:18:17;-1.30;1.00
774;DHT22;370;48.810;9.150;2024-01-16T07:20:44;-1.30;1.00
774;DHT22;370;48.810;9.150;2024-01-16T07:23:12;-1.30;1.00
774;DHT22;370;48.810;9.150;2024-01-16T07:25:39;-1.30;1.00
774;DHT22;370;48.810;9.150;2024-01-16T07:28:06;-1.20;1.00
774;DHT22;370;48.810;9.150;2024-01-16T07:30:34;-1.20;1.00
774;DHT22;370;48.810;9.150;2024-01-16T07:33:03;-1.30;1.00
774;DHT22;370;48.810;9.150;2024-01-16T07:35:30;-1.30;1.00
774;DHT22;370;48.810;9.150;2024-01-16T07:37:57;-1.40;1.00
774;DHT22;370;48.810;9.150;2024-01-16T07:40:24;-1.30;1.00
774;DHT22;370;48.810;9.150;2024-01-16T07:42:51;-1.20;1.00
774;DHT22;370;48.810;9.150;2024-01-16T07:45:18;-1.20;1.00
774;DHT22;370;48.810;9.150;2024-01-16T07:47:44;-1.20;1.00
774;DHT22;370;48.810;9.150;2024-01-16T07:50:12;-1.10;1.00
774;DHT22;370;48.810;9.150;2024-01-16T07:52:39;-1.10;1.00
774;DHT22;370;48.810;9.150;2024-01-16T07:55:06;-0.90;1.00
774;DHT22;370;48.810;9.150;2024-01-16T07:57:33;-0.90;1.00
774;DHT22;370;48.810;9.150;2024-01-16T07:59:59;-0.80;1.00
774;DHT22;370;48.810;9.150;2024-01-16T08:02:31;-0.70;1.00
774;DHT22;370;48.810;9.150;2024-01-16T08:04:58;-0.70;1.00
774;DHT22;370;48.810;9.150;2024-01-16T08:07:26;-0.60;1.00
774;DHT22;370;48.810;9.150;2024-01-16T08:09:53;-0.60;1.00
774;DHT22;370;48.810;9.150;2024-01-16T08:12:20;-0.50;1.00
774;DHT22;370;48.810;9.150;2024-01-16T08:14:47;-0.40;1.00
774;DHT22;370;48.810;9.150;2024-01-16T08:17:13;-0.30;1.00
774;DHT22;370;48.810;9.150;2024-01-16T08:19:41;-0.30;1.00
774;DHT22;370;48.810;9.150;2024-01-16T08:22:07;-0.20;1.00
774;DHT22;370;48.810;9.150;2024-01-16T08:24:35;-0.10;1.00
774;DHT22;370;48.810;9.150;2024-01-16T08:27:03;0.10;1.00
774;DHT22;370;48.810;9.150;2024-01-16T08:29:30;0.10;1.00
774;DHT22;370;48.810;9.150;2024-01-16T08:31:56;0.20;1.00
774;DHT22;370;48.810;9.150;2024-01-16T08:34:23;0.30;1.00
774;DHT22;370;48.810;9.150;2024-01-16T08:36:50;0.50;1.00
774;DHT22;370;48.810;9.150;2024-01-16T08:39:19;0.60;1.00
774;DHT22;370;48.810;9.150;2024-01-16T08:41:48;0.70;1.00
774;DHT22;370;48.810;9.150;2024-01-16T08:44:14;0.80;1.00
774;DHT22;370;48.810;9.150;2024-01-16T08:46:41;0.80;1.00
774;DHT22;370;48.810;9.150;2024-01-16T08:49:08;0.90;1.00
774;DHT22;370;48.810;9.150;2024-01-16T08:51:37;0.90;1.00
774;DHT22;370;48.810;9.150;2024-01-16T08:54:04;1.00;1.00
774;DHT22;370;48.810;9.150;2024-01-16T08:56:31;1.00;1.00
774;DHT22;370;48.810;9.150;2024-01-16T08:58:59;1.20;1.00
774;DHT22;370;48.810;9.150;2024-01-16T09:01:26;1.30;1.00
774;DHT22;370;48.810;9.150;2024-01-16T09:03:53;1.30;1.00
774;DHT22;370;48.810;9.150;2024-01-16T09:06:19;1.30;1.00
774;DHT22;370;48.810;9.150;2024-01-16T09:08:47;1.50;1.00
774;DHT22;370;48.810;9.150;2024-01-16T09:11:12;1.60;1.00
774;DHT22;370;48.810;9.150;2024-01-16T09:13:39;1.80;1.00
774;DHT22;370;48.810;9.150;2024-01-16T09:16:08;1.90;1.00
774;DHT22;370;48.810;9.150;2024-01-16T09:18:34;2.10;1.00
774;DHT22;370;48.810;9.150;2024-01-16T09:21:01;2.40;1.00
774;DHT22;370;48.810;9.150;2024-01-16T09:23:28;2.50;1.00
774;DHT22;370;48.810;9.150;2024-01-16T09:25:55;2.70;1.00
774;DHT22;370;48.810;9.150;2024-01-16T09:28:22;2.80;1.00
774;DHT22;370;48.810;9.150;2024-01-16T09:30:49;2.90;1.00
774;DHT22;370;48.810;9.150;2024-01-16T09:33:17;3.10;1.00
774;DHT22;370;48.810;9.150;2024-01-16T09:35:44;3.10;1.00
774;DHT22;370;48.810;9.150;2024-01-16T09:38:11;3.20;1.00
774;DHT22;370;48.810;9.150;2024-01-16T09:40:38;3.50;1.00
774;DHT22;370;48.810;9.150;2024-01-16T09:43:04;3.60;1.00
774;DHT22;370;48.810;9.150;2024-01-16T09:45:37;4.00;1.00
774;DHT22;370;48.810;9.150;2024-01-16T09:48:05;4.50;1.00
774;DHT22;370;48.810;9.150;2024-01-16T09:50:34;4.90;1.00
774;DHT22;370;48.810;9.150;2024-01-16T09:53:02;5.60;1.00
774;DHT22;370;48.810;9.150;2024-01-16T09:55:29;6.30;1.00
774;DHT22;370;48.810;9.150;2024-01-16T09:57:56;6.80;1.00
774;DHT22;370;48.810;9.150;2024-01-16T10:00:24;7.00;1.00
774;DHT22;370;48.810;9.150;2024-01-16T10:02:52;7.30;1.00
774;DHT22;370;48.810;9.150;2024-01-16T10:05:24;7.90;1.00
774;DHT22;370;48.810;9.150;2024-01-16T10:07:52;8.30;1.00
774;DHT22;370;48.810;9.150;2024-01-16T10:10:19;8.50;1.00
774;DHT22;370;48.810;9.150;2024-01-16T10:12:48;8.90;1.00
774;DHT22;370;48.810;9.150;2024-01-16T10:15:16;9.10;1.00
774;DHT22;370;48.810;9.150;2024-01-16T10:17:43;9.20;1.00
774;DHT22;370;48.810;9.150;2024-01-16T10:20:11;9.50;1.00
774;DHT22;370;48.810;9.150;2024-01-16T10:22:39;9.50;1.00
774;DHT22;370;48.810;9.150;2024-01-16T10:25:10;9.60;1.00
774;DHT22;370;48.810;9.150;2024-01-16T10:27:38;9.40;1.00
774;DHT22;370;48.810;9.150;2024-01-16T10:30:06;9.30;1.00
774;DHT22;370;48.810;9.150;2024-01-16T10:32:35;8.60;1.00
774;DHT22;370;48.810;9.150;2024-01-16T10:35:04;8.20;1.00
774;DHT22;370;48.810;9.150;2024-01-16T10:37:32;7.40;1.00
774;DHT22;370;48.810;9.150;2024-01-16T10:40:08;7.80;1.00
774;DHT22;370;48.810;9.150;2024-01-16T10:42:35;8.00;1.00
774;DHT22;370;48.810;9.150;2024-01-16T10:45:03;8.20;1.00
774;DHT22;370;48.810;9.150;2024-01-16T10:47:30;8.50;1.00
774;DHT22;370;48.810;9.150;2024-01-16T10:50:00;8.90;1.00
774;DHT22;370;48.810;9.150;2024-01-16T10:52:27;9.20;1.00
774;DHT22;370;48.810;9.150;2024-01-16T10:54:57;9.30;1.00
774;DHT22;370;48.810;9.150;2024-01-16T10:57:31;9.00;1.00
774;DHT22;370;48.810;9.150;2024-01-16T11:00:02;8.90;1.00
774;DHT22;370;48.810;9.150;2024-01-16T11:02:50;8.40;1.00
774;DHT22;370;48.810;9.150;2024-01-16T11:05:18;7.90;1.00
774;DHT22;370;48.810;9.150;2024-01-16T11:07:45;7.30;1.00
774;DHT22;370;48.810;9.150;2024-01-16T11:10:13;6.90;1.00
774;DHT22;370;48.810;9.150;2024-01-16T11:12:41;6.60;1.00
774;DHT22;370;48.810;9.150;2024-01-16T11:15:10;6.00;1.00
774;DHT22;370;48.810;9.150;2024-01-16T11:17:38;6.10;1.00
774;DHT22;370;48.810;9.150;2024-01-16T11:20:09;6.20;1.00
774;DHT22;370;48.810;9.150;2024-01-16T11:22:37;6.30;1.00
774;DHT22;370;48.810;9.150;2024-01-16T11:25:09;7.20;1.00
774;DHT22;370;48.810;9.150;2024-01-16T11:27:36;8.10;1.00
774;DHT22;370;48.810;9.150;2024-01-16T11:30:05;8.10;1.00
774;DHT22;370;48.810;9.150;2024-01-16T11:32:34;10.60;1.00
774;DHT22;370;48.810;9.150;2024-01-16T11:35:02;13.90;1.00
774;DHT22;370;48.810;9.150;2024-01-16T11:37:30;16.70;1.00
774;DHT22;370;48.810;9.150;2024-01-16T11:40:34;18.90;1.00
774;DHT22;370;48.810;9.150;2024-01-16T11:43:35;20.90;1.00
774;DHT22;370;48.810;9.150;2024-01-16T11:46:05;22.60;1.00
774;DHT22;370;48.810;9.150;2024-01-16T11:48:33;23.90;1.00
774;DHT22;370;48.810;9.150;2024-01-16T11:51:00;25.40;1.00
774;DHT22;370;48.810;9.150;2024-01-16T11:53:37;26.50;1.00
774;DHT22;370;48.810;9.150;2024-01-16T11:59:40;26.50;1.00
774;DHT22;370;48.810;9.150;2024-01-16T12:02:18;27.50;1.00
774;DHT22;370;48.810;9.150;2024-01-16T12:04:52;26.30;1.00
774;DHT22;370;48.810;9.150;2024-01-16T12:07:20;26.90;1.00
774;DHT22;370;48.810;9.150;2024-01-16T12:09:47;26.80;1.00
774;DHT22;370;48.810;9.150;2024-01-16T12:12:15;26.20;1.00
774;DHT22;370;48.810;9.150;2024-01-16T12:14:51;25.40;1.00
774;DHT22;370;48.810;9.150;2024-01-16T12:17:19;25.00;1.00
774;DHT22;370;48.810;9.150;2024-01-16T12:19:46;23.70;1.00
774;DHT22;370;48.810;9.150;2024-01-16T12:22:16;23.40;1.00
774;DHT22;370;48.810;9.150;2024-01-16T12:24:44;24.20;1.00
774;DHT22;370;48.810;9.150;2024-01-16T12:27:11;24.40;1.00
774;DHT22;370;48.810;9.150;2024-01-16T12:29:38;23.80;1.00
774;DHT22;370;48.810;9.150;2024-01-16T12:32:07;22.00;1.00
774;DHT22;370;48.810;9.150;2024-01-16T12:34:43;19.20;1.00
774;DHT22;370;48.810;9.150;2024-01-16T12:37:10;18.90;1.00
774;DHT22;370;48.810;9.150;2024-01-16T12:39:38;18.20;1.00
774;DHT22;370;48.810;9.150;2024-01-16T12:42:07;19.40;1.00
774;DHT22;370;48.810;9.150;2024-01-16T12:44:35;20.00;1.00
774;DHT22;370;48.810;9.150;2024-01-16T12:47:02;21.40;1.00
774;DHT22;370;48.810;9.150;2024-01-16T12:49:29;21.60;1.00
774;DHT22;370;48.810;9.150;2024-01-16T12:52:17;18.30;1.00
774;DHT22;370;48.810;9.150;2024-01-16T12:54:45;16.50;1.00
774;DHT22;370;48.810;9.150;2024-01-16T12:57:16;15.40;1.00
774;DHT22;370;48.810;9.150;2024-01-16T12:59:45;13.30;1.00
774;DHT22;370;48.810;9.150;2024-01-16T13:02:19;11.90;1.00
774;DHT22;370;48.810;9.150;2024-01-16T13:04:47;10.50;1.00
774;DHT22;370;48.810;9.150;2024-01-16T13:07:17;9.20;1.00
774;DHT22;370;48.810;9.150;2024-01-16T13:09:44;8.30;1.00
774;DHT22;370;48.810;9.150;2024-01-16T13:12:19;7.50;1.00
774;DHT22;370;48.810;9.150;2024-01-16T13:14:46;7.00;1.00
774;DHT22;370;48.810;9.150;2024-01-16T13:17:13;6.50;1.00
774;DHT22;370;48.810;9.150;2024-01-16T13:19:40;6.20;1.00
774;DHT22;370;48.810;9.150;2024-01-16T13:22:07;5.90;1.00
774;DHT22;370;48.810;9.150;2024-01-16T13:24:35;5.70;1.00
774;DHT22;370;48.810;9.150;2024-01-16T13:27:02;5.60;1.00
774;DHT22;370;48.810;9.150;2024-01-16T13:29:29;5.40;1.00
774;DHT22;370;48.810;9.150;2024-01-16T13:32:01;5.10;1.00
774;DHT22;370;48.810;9.150;2024-01-16T13:34:27;4.90;1.00
774;DHT22;370;48.810;9.150;2024-01-16T13:36:56;4.70;1.00
774;DHT22;370;48.810;9.150;2024-01-16T13:39:25;4.40;1.00
774;DHT22;370;48.810;9.150;2024-01-16T13:41:53;4.40;1.00
774;DHT22;370;48.810;9.150;2024-01-16T13:44:20;4.30;1.00
774;DHT22;370;48.810;9.150;2024-01-16T13:46:47;4.20;1.00
774;DHT22;370;48.810;9.150;2024-01-16T13:49:13;4.20;1.00
774;DHT22;370;48.810;9.150;2024-01-16T13:51:43;4.20;1.00
774;DHT22;370;48.810;9.150;2024-01-16T13:54:10;4.00;1.00
774;DHT22;370;48.810;9.150;2024-01-16T13:56:37;3.90;1.00
774;DHT22;370;48.810;9.150;2024-01-16T13:59:06;3.80;1.00
774;DHT22;370;48.810;9.150;2024-01-16T14:01:32;3.70;1.00
774;DHT22;370;48.810;9.150;2024-01-16T14:03:59;3.60;1.00
774;DHT22;370;48.810;9.150;2024-01-16T14:06:26;3.60;1.00
774;DHT22;370;48.810;9.150;2024-01-16T14:08:52;3.60;1.00
774;DHT22;370;48.810;9.150;2024-01-16T14:11:19;3.40;1.00
774;DHT22;370;48.810;9.150;2024-01-16T14:13:46;3.40;1.00
774;DHT22;370;48.810;9.150;2024-01-16T14:16:14;3.30;1.00
774;DHT22;370;48.810;9.150;2024-01-16T14:18:40;3.10;1.00
774;DHT22;370;48.810;9.150;2024-01-16T14:21:07;3.00;1.00
774;DHT22;370;48.810;9.150;2024-01-16T14:23:34;3.00;1.00
774;DHT22;370;48.810;9.150;2024-01-16T14:26:01;3.00;1.00
774;DHT22;370;48.810;9.150;2024-01-16T14:28:28;2.90;1.00
774;DHT22;370;48.810;9.150;2024-01-16T14:30:55;2.90;1.00
774;DHT22;370;48.810;9.150;2024-01-16T14:33:23;2.90;1.00
774;DHT22;370;48.810;9.150;2024-01-16T14:35:50;2.70;1.00
774;DHT22;370;48.810;9.150;2024-01-16T14:38:16;2.50;1.00
774;DHT22;370;48.810;9.150;2024-01-16T14:40:43;2.50;1.00
774;DHT22;370;48.810;9.150;2024-01-16T14:43:10;2.50;1.00
774;DHT22;370;48.810;9.150;2024-01-16T14:45:36;2.50;1.00
774;DHT22;370;48.810;9.150;2024-01-16T14:48:04;2.50;1.00
774;DHT22;370;48.810;9.150;2024-01-16T14:50:32;2.40;1.00
774;DHT22;370;48.810;9.150;2024-01-16T14:52:59;2.30;1.00
774;DHT22;370;48.810;9.150;2024-01-16T14:55:28;2.30;1.00
774;DHT22;370;48.810;9.150;2024-01-16T14:57:55;2.20;1.00
774;DHT22;370;48.810;9.150;2024-01-16T15:00:26;2.20;1.00
774;DHT22;370;48.810;9.150;2024-01-16T15:02:53;2.10;1.00
774;DHT22;370;48.810;9.150;2024-01-16T15:05:20;2.10;1.00
774;DHT22;370;48.810;9.150;2024-01-16T15:07:50;2.00;1.00
774;DHT22;370;48.810;9.150;2024-01-16T15:10:18;1.90;1.00
774;DHT22;370;48.810;9.150;2024-01-16T15:12:45;1.80;1.00
774;DHT22;370;48.810;9.150;2024-01-16T15:15:27;1.80;1.00
774;DHT22;370;48.810;9.150;2024-01-16T15:18:10;1.70;1.00
774;DHT22;370;48.810;9.150;2024-01-16T15:20:39;1.70;1.00
774;DHT22;370;48.810;9.150;2024-01-16T15:23:07;1.60;1.00
774;DHT22;370;48.810;9.150;2024-01-16T15:25:34;1.60;1.00
774;DHT22;370;48.810;9.150;2024-01-16T15:28:00;1.50;1.00
774;DHT22;370;48.810;9.150;2024-01-16T15:30:29;1.40;1.00
774;DHT22;370;48.810;9.150;2024-01-16T15:32:58;1.30;1.00
774;DHT22;370;48.810;9.150;2024-01-16T15:35:25;1.10;1.00
774;DHT22;370;48.810;9.150;2024-01-16T15:37:51;1.00;1.00
774;DHT22;370;48.810;9.150;2024-01-16T15:40:20;0.80;1.00
774;DHT22;370;48.810;9.150;2024-01-16T15:42:46;0.70;1.00
774;DHT22;370;48.810;9.150;2024-01-16T15:45:13;0.60;1.00
774;DHT22;370;48.810;9.150;2024-01-16T15:47:40;0.50;1.00
774;DHT22;370;48.810;9.150;2024-01-16T15:50:08;0.40;1.00
774;DHT22;370;48.810;9.150;2024-01-16T15:52:35;0.20;1.00
774;DHT22;370;48.810;9.150;2024-01-16T15:55:03;0.10;1.00
774;DHT22;370;48.810;9.150;2024-01-16T15:57:31;0.00;1.00
774;DHT22;370;48.810;9.150;2024-01-16T15:59:57;0.00;1.00
774;DHT22;370;48.810;9.150;2024-01-16T16:02:24;-0.10;1.00
774;DHT22;370;48.810;9.150;2024-01-16T16:04:51;-0.30;1.00
774;DHT22;370;48.810;9.150;2024-01-16T16:07:19;-0.40;1.00
774;DHT22;370;48.810;9.150;2024-01-16T16:09:46;-0.50;1.00
774;DHT22;370;48.810;9.150;2024-01-16T16:12:13;-0.60;1.00
774;DHT22;370;48.810;9.150;2024-01-16T16:14:41;-0.70;1.00
774;DHT22;370;48.810;9.150;2024-01-16T16:17:08;-0.70;1.00
774;DHT22;370;48.810;9.150;2024-01-16T16:19:35;-0.80;1.00
774;DHT22;370;48.810;9.150;2024-01-16T16:22:04;-0.90;1.00
774;DHT22;370;48.810;9.150;2024-01-16T16:24:32;-1.00;1.00
774;DHT22;370;48.810;9.150;2024-01-16T16:27:00;-1.10;1.00
774;DHT22;370;48.810;9.150;2024-01-16T16:29:29;-1.10;1.00
774;DHT22;370;48.810;9.150;2024-01-16T16:31:57;-1.20;1.00
774;DHT22;370;48.810;9.150;2024-01-16T16:34:24;-1.30;1.00
774;DHT22;370;48.810;9.150;2024-01-16T16:36:51;-1.30;1.00
774;DHT22;370;48.810;9.150;2024-01-16T16:39:18;-1.40;1.00
774;DHT22;370;48.810;9.150;2024-01-16T16:41:47;-1.40;1.00
774;DHT22;370;48.810;9.150;2024-01-16T16:44:15;-1.60;1.00
774;DHT22;370;48.810;9.150;2024-01-16T16:46:42;-1.60;1.00
774;DHT22;370;48.810;9.150;2024-01-16T16:49:10;-1.70;1.00
774;DHT22;370;48.810;9.150;2024-01-16T16:51:37;-1.70;1.00
774;DHT22;370;48.810;9.150;2024-01-16T16:54:07;-1.70;1.00
774;DHT22;370;48.810;9.150;2024-01-16T16:56:34;-1.80;1.00
774;DHT22;370;48.810;9.150;2024-01-16T16:59:00;-1.80;1.00
774;DHT22;370;48.810;9.150;2024-01-16T17:01:27;-1.90;1.00
774;DHT22;370;48.810;9.150;2024-01-16T17:03:54;-1.90;1.00
774;DHT22;370;48.810;9.150;2024-01-16T17:06:22;-1.90;1.00
774;DHT22;370;48.810;9.150;2024-01-16T17:08:49;-2.00;1.00
774;DHT22;370;48.810;9.150;2024-01-16T17:11:16;-2.10;1.00
774;DHT22;370;48.810;9.150;2024-01-16T17:13:42;-2.10;1.00